sensor_id;sensor_type;location;lat;lon;timestamp;P1;durP1;ratioP1;P2;durP2;ratioP2
15312;SDS011;7757;52.626;4.746;2022-10-03T00:00:40;7.78;;;1.48;;
15312;SDS011;7757;52.626;4.746;2022-10-03T00:03:29;9.95;;;1.45;;
15312;SDS011;7757;52.626;4.746;2022-10-03T00:06:04;5.25;;;1.20;;
15312;SDS011;7757;52.626;4.746;2022-10-03T00:08:41;7.57;;;1.40;;
15312;SDS011;7757;52.626;4.746;2022-10-03T00:11:19;7.63;;;1.20;;
15312;SDS011;7757;52.626;4.746;2022-10-03T00:13:59;7.15;;;1.50;;
15312;SDS011;7757;52.626;4.746;2022-10-03T00:16:34;6.18;;;1.15;;
15312;SDS011;7757;52.626;4.746;2022-10-03T00:19:07;7.70;;;1.42;;
15312;SDS011;7757;52.626;4.746;2022-10-03T00:21:45;6.55;;;1.25;;
15312;SDS011;7757;52.626;4.746;2022-10-03T00:24:24;5.00;;;1.10;;
15312;SDS011;7757;52.626;4.746;2022-10-03T00:27:00;7.00;;;1.27;;
15312;SDS011;7757;52.626;4.746;2022-10-03T00:29:39;7.00;;;1.40;;
15312;SDS011;7757;52.626;4.746;2022-10-03T00:32:19;9.45;;;1.70;;
15312;SDS011;7757;52.626;4.746;2022-10-03T00:35:03;7.60;;;1.20;;
15312;SDS011;7757;52.626;4.746;2022-10-03T00:37:43;9.35;;;1.20;;
15312;SDS011;7757;52.626;4.746;2022-10-03T00:43:24;7.78;;;1.50;;
15312;SDS011;7757;52.626;4.746;2022-10-03T00:46:13;6.50;;;1.35;;
15312;SDS011;7757;52.626;4.746;2022-10-03T00:52:18;4.82;;;0.95;;
15312;SDS011;7757;52.626;4.746;2022-10-03T00:54:59;4.32;;;0.77;;
15312;SDS011;7757;52.626;4.746;2022-10-03T01:00:26;6.38;;;1.30;;
15312;SDS011;7757;52.626;4.746;2022-10-03T01:03:02;8.10;;;1.48;;
15312;SDS011;7757;52.626;4.746;2022-10-03T01:05:42;6.25;;;1.50;;
15312;SDS011;7757;52.626;4.746;2022-10-03T01:08:33;5.50;;;1.13;;
15312;SDS011;7757;52.626;4.746;2022-10-03T01:11:11;7.70;;;1.20;;
15312;SDS011;7757;52.626;4.746;2022-10-03T01:13:51;3.70;;;1.20;;
15312;SDS011;7757;52.626;4.746;2022-10-03T01:16:29;7.85;;;1.17;;
15312;SDS011;7757;52.626;4.746;2022-10-03T01:19:06;5.78;;;1.00;;
15312;SDS011;7757;52.626;4.746;2022-10-03T01:21:52;5.25;;;1.13;;
15312;SDS011;7757;52.626;4.746;2022-10-03T01:24:47;8.10;;;1.63;;
15312;SDS011;7757;52.626;4.746;2022-10-03T01:27:17;6.70;;;1.15;;
15312;SDS011;7757;52.626;4.746;2022-10-03T01:29:55;8.63;;;1.20;;
15312;SDS011;7757;52.626;4.746;2022-10-03T01:32:43;5.50;;;1.10;;
15312;SDS011;7757;52.626;4.746;2022-10-03T01:35:19;4.03;;;0.90;;
15312;SDS011;7757;52.626;4.746;2022-10-03T01:37:56;6.28;;;1.20;;
15312;SDS011;7757;52.626;4.746;2022-10-03T01:40:32;3.47;;;0.90;;
15312;SDS011;7757;52.626;4.746;2022-10-03T01:43:04;6.05;;;1.20;;
15312;SDS011;7757;52.626;4.746;2022-10-03T01:45:45;6.80;;;1.35;;
15312;SDS011;7757;52.626;4.746;2022-10-03T01:48:21;8.60;;;1.30;;
15312;SDS011;7757;52.626;4.746;2022-10-03T01:50:58;6.00;;;1.10;;
15312;SDS011;7757;52.626;4.746;2022-10-03T01:53:32;6.07;;;1.20;;
15312;SDS011;7757;52.626;4.746;2022-10-03T01:56:07;6.85;;;1.05;;
15312;SDS011;7757;52.626;4.746;2022-10-03T01:58:42;4.05;;;1.20;;
15312;SDS011;7757;52.626;4.746;2022-10-03T02:01:20;7.97;;;1.17;;
15312;SDS011;7757;52.626;4.746;2022-10-03T02:03:52;5.35;;;0.88;;
15312;SDS011;7757;52.626;4.746;2022-10-03T02:06:26;9.70;;;1.60;;
15312;SDS011;7757;52.626;4.746;2022-10-03T02:09:06;5.32;;;1.23;;
15312;SDS011;7757;52.626;4.746;2022-10-03T02:11:38;6.47;;;1.02;;
15312;SDS011;7757;52.626;4.746;2022-10-03T02:14:23;7.40;;;1.20;;
15312;SDS011;7757;52.626;4.746;2022-10-03T02:17:00;4.28;;;1.00;;
15312;SDS011;7757;52.626;4.746;2022-10-03T02:19:33;4.67;;;0.80;;
15312;SDS011;7757;52.626;4.746;2022-10-03T02:22:12;6.15;;;1.00;;
15312;SDS011;7757;52.626;4.746;2022-10-03T02:24:42;10.60;;;1.27;;
15312;SDS011;7757;52.626;4.746;2022-10-03T02:27:26;6.88;;;1.13;;
15312;SDS011;7757;52.626;4.746;2022-10-03T02:30:08;3.40;;;0.82;;
15312;SDS011;7757;52.626;4.746;2022-10-03T02:32:52;9.52;;;1.30;;
15312;SDS011;7757;52.626;4.746;2022-10-03T02:35:50;6.57;;;1.50;;
15312;SDS011;7757;52.626;4.746;2022-10-03T02:38:32;7.68;;;1.10;;
15312;SDS011;7757;52.626;4.746;2022-10-03T02:44:38;5.70;;;1.10;;
15312;SDS011;7757;52.626;4.746;2022-10-03T02:47:40;7.90;;;1.35;;
15312;SDS011;7757;52.626;4.746;2022-10-03T02:50:45;5.45;;;1.02;;
15312;SDS011;7757;52.626;4.746;2022-10-03T02:53:43;6.90;;;1.30;;
15312;SDS011;7757;52.626;4.746;2022-10-03T02:56:49;8.75;;;1.10;;
15312;SDS011;7757;52.626;4.746;2022-10-03T02:59:46;5.00;;;1.20;;
15312;SDS011;7757;52.626;4.746;2022-10-03T03:02:37;6.85;;;1.20;;
15312;SDS011;7757;52.626;4.746;2022-10-03T03:12:15;10.98;;;1.23;;
15312;SDS011;7757;52.626;4.746;2022-10-03T03:18:10;6.22;;;1.20;;
15312;SDS011;7757;52.626;4.746;2022-10-03T03:20:56;6.25;;;1.20;;
15312;SDS011;7757;52.626;4.746;2022-10-03T03:23:36;4.55;;;0.70;;
15312;SDS011;7757;52.626;4.746;2022-10-03T03:29:07;6.35;;;1.10;;
15312;SDS011;7757;52.626;4.746;2022-10-03T03:31:44;5.95;;;1.33;;
15312;SDS011;7757;52.626;4.746;2022-10-03T03:34:17;5.95;;;1.00;;
15312;SDS011;7757;52.626;4.746;2022-10-03T03:36:53;6.47;;;1.30;;
15312;SDS011;7757;52.626;4.746;2022-10-03T03:42:32;5.78;;;1.05;;
15312;SDS011;7757;52.626;4.746;2022-10-03T03:45:20;8.38;;;1.10;;
15312;SDS011;7757;52.626;4.746;2022-10-03T03:48:01;5.88;;;1.10;;
15312;SDS011;7757;52.626;4.746;2022-10-03T03:50:45;6.40;;;1.33;;
15312;SDS011;7757;52.626;4.746;2022-10-03T03:56:36;6.63;;;1.40;;
15312;SDS011;7757;52.626;4.746;2022-10-03T03:59:17;8.52;;;1.40;;
15312;SDS011;7757;52.626;4.746;2022-10-03T04:02:04;7.95;;;1.20;;
15312;SDS011;7757;52.626;4.746;2022-10-03T04:04:44;4.60;;;1.08;;
15312;SDS011;7757;52.626;4.746;2022-10-03T04:07:26;4.85;;;1.00;;
15312;SDS011;7757;52.626;4.746;2022-10-03T04:10:22;6.95;;;1.55;;
15312;SDS011;7757;52.626;4.746;2022-10-03T04:13:03;6.10;;;1.20;;
15312;SDS011;7757;52.626;4.746;2022-10-03T04:15:55;4.95;;;1.13;;
15312;SDS011;7757;52.626;4.746;2022-10-03T04:18:47;5.03;;;1.25;;
15312;SDS011;7757;52.626;4.746;2022-10-03T04:30:14;5.20;;;1.00;;
15312;SDS011;7757;52.626;4.746;2022-10-03T04:32:57;7.07;;;1.20;;
15312;SDS011;7757;52.626;4.746;2022-10-03T04:35:52;8.32;;;1.45;;
15312;SDS011;7757;52.626;4.746;2022-10-03T04:38:42;5.85;;;1.27;;
15312;SDS011;7757;52.626;4.746;2022-10-03T04:41:17;6.35;;;1.20;;
15312;SDS011;7757;52.626;4.746;2022-10-03T04:43:52;5.82;;;1.10;;
15312;SDS011;7757;52.626;4.746;2022-10-03T04:46:26;6.27;;;1.10;;
15312;SDS011;7757;52.626;4.746;2022-10-03T04:49:00;5.88;;;1.27;;
15312;SDS011;7757;52.626;4.746;2022-10-03T04:51:40;6.63;;;1.42;;
15312;SDS011;7757;52.626;4.746;2022-10-03T04:54:15;6.63;;;1.30;;
15312;SDS011;7757;52.626;4.746;2022-10-03T04:56:51;3.95;;;1.10;;
15312;SDS011;7757;52.626;4.746;2022-10-03T05:01:57;7.28;;;1.27;;
15312;SDS011;7757;52.626;4.746;2022-10-03T05:04:33;6.45;;;1.23;;
15312;SDS011;7757;52.626;4.746;2022-10-03T05:07:10;4.25;;;0.90;;
15312;SDS011;7757;52.626;4.746;2022-10-03T05:09:47;4.28;;;1.20;;
15312;SDS011;7757;52.626;4.746;2022-10-03T05:12:24;2.28;;;0.80;;
15312;SDS011;7757;52.626;4.746;2022-10-03T05:15:00;5.60;;;1.10;;
15312;SDS011;7757;52.626;4.746;2022-10-03T05:17:40;4.53;;;1.10;;
15312;SDS011;7757;52.626;4.746;2022-10-03T05:20:25;6.00;;;1.20;;
15312;SDS011;7757;52.626;4.746;2022-10-03T05:23:13;4.47;;;1.10;;
15312;SDS011;7757;52.626;4.746;2022-10-03T05:25:53;7.18;;;1.40;;
15312;SDS011;7757;52.626;4.746;2022-10-03T05:28:30;6.13;;;1.30;;
15312;SDS011;7757;52.626;4.746;2022-10-03T05:31:03;4.85;;;1.13;;
15312;SDS011;7757;52.626;4.746;2022-10-03T05:33:42;6.47;;;1.15;;
15312;SDS011;7757;52.626;4.746;2022-10-03T05:36:17;5.20;;;1.15;;
15312;SDS011;7757;52.626;4.746;2022-10-03T05:39:00;4.97;;;1.20;;
15312;SDS011;7757;52.626;4.746;2022-10-03T05:41:56;4.25;;;1.13;;
15312;SDS011;7757;52.626;4.746;2022-10-03T05:44:39;5.93;;;1.23;;
15312;SDS011;7757;52.626;4.746;2022-10-03T05:47:08;10.68;;;1.60;;
15312;SDS011;7757;52.626;4.746;2022-10-03T05:49:55;5.95;;;1.20;;
15312;SDS011;7757;52.626;4.746;2022-10-03T05:52:47;14.10;;;2.60;;
15312;SDS011;7757;52.626;4.746;2022-10-03T05:55:41;21.27;;;4.30;;
15312;SDS011;7757;52.626;4.746;2022-10-03T05:58:19;26.50;;;5.70;;
15312;SDS011;7757;52.626;4.746;2022-10-03T06:01:06;32.00;;;5.47;;
15312;SDS011;7757;52.626;4.746;2022-10-03T06:03:54;23.60;;;5.20;;
15312;SDS011;7757;52.626;4.746;2022-10-03T06:06:31;24.88;;;4.93;;
15312;SDS011;7757;52.626;4.746;2022-10-03T06:12:14;19.50;;;4.28;;
15312;SDS011;7757;52.626;4.746;2022-10-03T06:15:08;25.58;;;5.68;;
15312;SDS011;7757;52.626;4.746;2022-10-03T06:17:50;19.40;;;4.88;;
15312;SDS011;7757;52.626;4.746;2022-10-03T06:20:28;17.25;;;4.05;;
15312;SDS011;7757;52.626;4.746;2022-10-03T06:23:29;18.40;;;3.30;;
15312;SDS011;7757;52.626;4.746;2022-10-03T06:29:19;17.88;;;3.60;;
15312;SDS011;7757;52.626;4.746;2022-10-03T06:35:24;17.80;;;3.13;;
15312;SDS011;7757;52.626;4.746;2022-10-03T06:41:33;15.00;;;2.83;;
15312;SDS011;7757;52.626;4.746;2022-10-03T06:44:32;15.68;;;2.90;;
15312;SDS011;7757;52.626;4.746;2022-10-03T06:47:15;12.13;;;2.50;;
15312;SDS011;7757;52.626;4.746;2022-10-03T06:52:58;12.43;;;2.55;;
15312;SDS011;7757;52.626;4.746;2022-10-03T06:55:45;11.65;;;2.50;;
15312;SDS011;7757;52.626;4.746;2022-10-03T06:58:39;12.27;;;2.30;;
15312;SDS011;7757;52.626;4.746;2022-10-03T07:04:21;10.13;;;2.47;;
15312;SDS011;7757;52.626;4.746;2022-10-03T07:07:15;12.15;;;2.53;;
15312;SDS011;7757;52.626;4.746;2022-10-03T07:10:04;11.02;;;2.75;;
15312;SDS011;7757;52.626;4.746;2022-10-03T07:15:46;12.15;;;2.60;;
15312;SDS011;7757;52.626;4.746;2022-10-03T07:18:29;12.40;;;2.80;;
15312;SDS011;7757;52.626;4.746;2022-10-03T07:21:23;9.17;;;2.30;;
15312;SDS011;7757;52.626;4.746;2022-10-03T07:26:59;7.82;;;2.10;;
15312;SDS011;7757;52.626;4.746;2022-10-03T07:29:52;11.00;;;2.65;;
15312;SDS011;7757;52.626;4.746;2022-10-03T07:32:33;10.48;;;2.42;;
15312;SDS011;7757;52.626;4.746;2022-10-03T07:44:36;10.20;;;2.95;;
15312;SDS011;7757;52.626;4.746;2022-10-03T07:47:34;9.30;;;2.35;;
15312;SDS011;7757;52.626;4.746;2022-10-03T07:50:29;11.57;;;2.67;;
15312;SDS011;7757;52.626;4.746;2022-10-03T07:56:16;12.13;;;2.50;;
15312;SDS011;7757;52.626;4.746;2022-10-03T07:59:07;13.30;;;3.03;;
15312;SDS011;7757;52.626;4.746;2022-10-03T08:01:56;9.63;;;2.33;;
15312;SDS011;7757;52.626;4.746;2022-10-03T08:04:46;9.45;;;2.10;;
15312;SDS011;7757;52.626;4.746;2022-10-03T08:07:32;9.63;;;2.30;;
15312;SDS011;7757;52.626;4.746;2022-10-03T08:13:32;10.23;;;2.40;;
15312;SDS011;7757;52.626;4.746;2022-10-03T08:16:11;9.45;;;2.38;;
15312;SDS011;7757;52.626;4.746;2022-10-03T08:19:11;10.40;;;2.30;;
15312;SDS011;7757;52.626;4.746;2022-10-03T08:21:51;10.02;;;2.33;;
15312;SDS011;7757;52.626;4.746;2022-10-03T08:24:39;11.13;;;2.50;;
15312;SDS011;7757;52.626;4.746;2022-10-03T08:32:55;12.13;;;2.25;;
15312;SDS011;7757;52.626;4.746;2022-10-03T08:35:29;9.20;;;2.25;;
15312;SDS011;7757;52.626;4.746;2022-10-03T08:56:23;8.38;;;2.08;;
15312;SDS011;7757;52.626;4.746;2022-10-03T08:59:12;10.05;;;1.90;;
15312;SDS011;7757;52.626;4.746;2022-10-03T09:08:14;8.32;;;2.08;;
15312;SDS011;7757;52.626;4.746;2022-10-03T09:11:12;8.73;;;1.95;;
15312;SDS011;7757;52.626;4.746;2022-10-03T09:17:20;9.25;;;1.90;;
15312;SDS011;7757;52.626;4.746;2022-10-03T09:20:18;7.43;;;1.67;;
15312;SDS011;7757;52.626;4.746;2022-10-03T09:23:16;9.13;;;2.00;;
15312;SDS011;7757;52.626;4.746;2022-10-03T09:29:15;7.38;;;1.90;;
15312;SDS011;7757;52.626;4.746;2022-10-03T09:32:24;6.00;;;1.60;;
15312;SDS011;7757;52.626;4.746;2022-10-03T09:35:21;8.48;;;1.77;;
15312;SDS011;7757;52.626;4.746;2022-10-03T09:38:28;7.78;;;1.85;;
15312;SDS011;7757;52.626;4.746;2022-10-03T09:41:26;7.93;;;1.60;;
15312;SDS011;7757;52.626;4.746;2022-10-03T09:44:21;16.67;;;2.17;;
15312;SDS011;7757;52.626;4.746;2022-10-03T09:47:06;11.85;;;1.88;;
15312;SDS011;7757;52.626;4.746;2022-10-03T09:50:07;9.23;;;1.80;;
15312;SDS011;7757;52.626;4.746;2022-10-03T09:53:14;9.10;;;1.77;;
15312;SDS011;7757;52.626;4.746;2022-10-03T09:55:59;7.35;;;1.60;;
15312;SDS011;7757;52.626;4.746;2022-10-03T09:58:50;8.68;;;1.70;;
15312;SDS011;7757;52.626;4.746;2022-10-03T10:01:33;7.18;;;1.50;;
15312;SDS011;7757;52.626;4.746;2022-10-03T10:04:22;5.63;;;1.50;;
15312;SDS011;7757;52.626;4.746;2022-10-03T10:07:27;8.98;;;1.60;;
15312;SDS011;7757;52.626;4.746;2022-10-03T10:10:13;7.47;;;1.70;;
15312;SDS011;7757;52.626;4.746;2022-10-03T10:16:18;6.50;;;1.52;;
15312;SDS011;7757;52.626;4.746;2022-10-03T10:19:06;8.32;;;1.70;;
15312;SDS011;7757;52.626;4.746;2022-10-03T10:21:57;7.30;;;1.77;;
15312;SDS011;7757;52.626;4.746;2022-10-03T10:25:02;8.60;;;1.88;;
15312;SDS011;7757;52.626;4.746;2022-10-03T10:31:14;6.28;;;1.55;;
15312;SDS011;7757;52.626;4.746;2022-10-03T10:36:57;5.95;;;1.27;;
15312;SDS011;7757;52.626;4.746;2022-10-03T10:39:55;6.78;;;1.42;;
15312;SDS011;7757;52.626;4.746;2022-10-03T10:42:40;7.35;;;2.00;;
15312;SDS011;7757;52.626;4.746;2022-10-03T10:45:54;6.28;;;1.48;;
15312;SDS011;7757;52.626;4.746;2022-10-03T10:54:54;8.32;;;2.00;;
15312;SDS011;7757;52.626;4.746;2022-10-03T10:57:49;7.70;;;2.17;;
15312;SDS011;7757;52.626;4.746;2022-10-03T11:00:51;7.97;;;1.70;;
15312;SDS011;7757;52.626;4.746;2022-10-03T11:06:52;7.28;;;1.42;;
15312;SDS011;7757;52.626;4.746;2022-10-03T11:09:46;7.45;;;1.55;;
15312;SDS011;7757;52.626;4.746;2022-10-03T11:15:34;7.97;;;1.38;;
15312;SDS011;7757;52.626;4.746;2022-10-03T11:18:32;10.65;;;1.67;;
15312;SDS011;7757;52.626;4.746;2022-10-03T11:24:55;4.85;;;1.40;;
15312;SDS011;7757;52.626;4.746;2022-10-03T11:34:06;6.90;;;1.48;;
15312;SDS011;7757;52.626;4.746;2022-10-03T11:37:05;5.63;;;1.35;;
15312;SDS011;7757;52.626;4.746;2022-10-03T11:39:42;6.20;;;1.23;;
15312;SDS011;7757;52.626;4.746;2022-10-03T11:42:27;7.22;;;1.40;;
15312;SDS011;7757;52.626;4.746;2022-10-03T11:45:01;6.78;;;1.50;;
15312;SDS011;7757;52.626;4.746;2022-10-03T11:47:50;6.28;;;1.38;;
15312;SDS011;7757;52.626;4.746;2022-10-03T11:50:29;7.88;;;1.50;;
15312;SDS011;7757;52.626;4.746;2022-10-03T11:53:32;5.85;;;1.35;;
15312;SDS011;7757;52.626;4.746;2022-10-03T11:56:12;5.15;;;1.30;;
15312;SDS011;7757;52.626;4.746;2022-10-03T11:58:51;6.68;;;1.33;;
15312;SDS011;7757;52.626;4.746;2022-10-03T12:01:28;4.90;;;1.25;;
15312;SDS011;7757;52.626;4.746;2022-10-03T12:04:07;4.28;;;1.13;;
15312;SDS011;7757;52.626;4.746;2022-10-03T12:06:46;9.90;;;1.60;;
15312;SDS011;7757;52.626;4.746;2022-10-03T12:09:54;6.72;;;1.60;;
15312;SDS011;7757;52.626;4.746;2022-10-03T12:12:28;5.22;;;1.20;;
15312;SDS011;7757;52.626;4.746;2022-10-03T12:15:10;9.43;;;1.60;;
15312;SDS011;7757;52.626;4.746;2022-10-03T12:17:45;7.70;;;1.70;;
15312;SDS011;7757;52.626;4.746;2022-10-03T12:20:19;7.50;;;1.58;;
15312;SDS011;7757;52.626;4.746;2022-10-03T12:22:51;6.43;;;1.50;;
15312;SDS011;7757;52.626;4.746;2022-10-03T12:25:23;9.52;;;1.83;;
15312;SDS011;7757;52.626;4.746;2022-10-03T12:27:59;11.00;;;1.80;;
15312;SDS011;7757;52.626;4.746;2022-10-03T12:30:33;8.85;;;1.60;;
15312;SDS011;7757;52.626;4.746;2022-10-03T12:33:16;10.93;;;1.92;;
15312;SDS011;7757;52.626;4.746;2022-10-03T12:35:54;8.90;;;1.67;;
15312;SDS011;7757;52.626;4.746;2022-10-03T12:38:33;9.27;;;1.77;;
15312;SDS011;7757;52.626;4.746;2022-10-03T12:41:14;9.93;;;1.70;;
15312;SDS011;7757;52.626;4.746;2022-10-03T12:43:50;8.13;;;1.60;;
15312;SDS011;7757;52.626;4.746;2022-10-03T12:46:35;8.50;;;1.60;;
15312;SDS011;7757;52.626;4.746;2022-10-03T12:49:10;8.68;;;1.63;;
15312;SDS011;7757;52.626;4.746;2022-10-03T12:51:50;8.60;;;1.73;;
15312;SDS011;7757;52.626;4.746;2022-10-03T12:54:26;8.65;;;1.48;;
15312;SDS011;7757;52.626;4.746;2022-10-03T13:00:05;7.20;;;1.50;;
15312;SDS011;7757;52.626;4.746;2022-10-03T13:02:40;8.73;;;1.70;;
15312;SDS011;7757;52.626;4.746;2022-10-03T13:05:34;9.38;;;1.65;;
15312;SDS011;7757;52.626;4.746;2022-10-03T13:08:14;8.48;;;1.67;;
15312;SDS011;7757;52.626;4.746;2022-10-03T13:10:52;9.73;;;1.70;;
15312;SDS011;7757;52.626;4.746;2022-10-03T13:13:23;9.80;;;1.73;;
15312;SDS011;7757;52.626;4.746;2022-10-03T13:16:04;6.32;;;1.35;;
15312;SDS011;7757;52.626;4.746;2022-10-03T13:18:49;10.10;;;1.65;;
15312;SDS011;7757;52.626;4.746;2022-10-03T13:21:23;8.93;;;1.60;;
15312;SDS011;7757;52.626;4.746;2022-10-03T13:24:03;10.30;;;1.80;;
15312;SDS011;7757;52.626;4.746;2022-10-03T13:26:39;6.90;;;1.45;;
15312;SDS011;7757;52.626;4.746;2022-10-03T13:29:20;7.40;;;1.55;;
15312;SDS011;7757;52.626;4.746;2022-10-03T13:32:00;7.50;;;1.55;;
15312;SDS011;7757;52.626;4.746;2022-10-03T13:34:35;6.57;;;1.38;;
15312;SDS011;7757;52.626;4.746;2022-10-03T13:37:18;10.52;;;1.88;;
15312;SDS011;7757;52.626;4.746;2022-10-03T13:39:52;9.57;;;1.70;;
15312;SDS011;7757;52.626;4.746;2022-10-03T13:42:28;9.90;;;1.98;;
15312;SDS011;7757;52.626;4.746;2022-10-03T13:45:01;7.85;;;1.50;;
15312;SDS011;7757;52.626;4.746;2022-10-03T13:50:22;7.07;;;1.70;;
15312;SDS011;7757;52.626;4.746;2022-10-03T13:52:56;6.95;;;1.50;;
15312;SDS011;7757;52.626;4.746;2022-10-03T13:55:28;9.98;;;1.65;;
15312;SDS011;7757;52.626;4.746;2022-10-03T13:58:15;9.30;;;1.77;;
15312;SDS011;7757;52.626;4.746;2022-10-03T14:01:00;7.30;;;1.80;;
15312;SDS011;7757;52.626;4.746;2022-10-03T14:03:39;8.52;;;1.60;;
15312;SDS011;7757;52.626;4.746;2022-10-03T14:06:20;10.60;;;1.70;;
15312;SDS011;7757;52.626;4.746;2022-10-03T14:08:54;9.63;;;1.80;;
15312;SDS011;7757;52.626;4.746;2022-10-03T14:11:35;9.65;;;1.60;;
15312;SDS011;7757;52.626;4.746;2022-10-03T14:14:24;8.52;;;1.70;;
15312;SDS011;7757;52.626;4.746;2022-10-03T14:17:01;12.18;;;1.65;;
15312;SDS011;7757;52.626;4.746;2022-10-03T14:19:38;7.28;;;1.60;;
15312;SDS011;7757;52.626;4.746;2022-10-03T14:22:19;8.75;;;1.88;;
15312;SDS011;7757;52.626;4.746;2022-10-03T14:24:59;6.90;;;1.50;;
15312;SDS011;7757;52.626;4.746;2022-10-03T14:27:41;7.90;;;1.70;;
15312;SDS011;7757;52.626;4.746;2022-10-03T14:32:44;10.73;;;1.92;;
15312;SDS011;7757;52.626;4.746;2022-10-03T14:35:21;7.60;;;1.70;;
15312;SDS011;7757;52.626;4.746;2022-10-03T14:37:59;6.43;;;1.40;;
15312;SDS011;7757;52.626;4.746;2022-10-03T14:40:39;8.80;;;1.60;;
15312;SDS011;7757;52.626;4.746;2022-10-03T14:43:16;7.30;;;1.63;;
15312;SDS011;7757;52.626;4.746;2022-10-03T14:45:51;9.70;;;1.67;;
15312;SDS011;7757;52.626;4.746;2022-10-03T14:48:20;9.55;;;1.90;;
15312;SDS011;7757;52.626;4.746;2022-10-03T14:50:50;11.32;;;2.20;;
15312;SDS011;7757;52.626;4.746;2022-10-03T14:53:23;10.32;;;2.15;;
15312;SDS011;7757;52.626;4.746;2022-10-03T14:55:55;19.00;;;1.85;;
15312;SDS011;7757;52.626;4.746;2022-10-03T14:58:25;9.80;;;2.00;;
15312;SDS011;7757;52.626;4.746;2022-10-03T15:01:00;9.15;;;1.80;;
15312;SDS011;7757;52.626;4.746;2022-10-03T15:03:32;14.30;;;2.30;;
15312;SDS011;7757;52.626;4.746;2022-10-03T15:08:58;8.20;;;1.70;;
15312;SDS011;7757;52.626;4.746;2022-10-03T15:11:27;10.23;;;2.05;;
15312;SDS011;7757;52.626;4.746;2022-10-03T15:13:58;9.85;;;1.90;;
15312;SDS011;7757;52.626;4.746;2022-10-03T15:16:28;10.32;;;1.85;;
15312;SDS011;7757;52.626;4.746;2022-10-03T15:18:59;12.15;;;1.90;;
15312;SDS011;7757;52.626;4.746;2022-10-03T15:21:28;10.07;;;1.83;;
15312;SDS011;7757;52.626;4.746;2022-10-03T15:23:57;11.05;;;2.10;;
15312;SDS011;7757;52.626;4.746;2022-10-03T15:26:27;14.32;;;1.98;;
15312;SDS011;7757;52.626;4.746;2022-10-03T15:28:59;13.30;;;1.98;;
15312;SDS011;7757;52.626;4.746;2022-10-03T15:31:32;14.13;;;2.05;;
15312;SDS011;7757;52.626;4.746;2022-10-03T15:34:00;10.23;;;2.08;;
15312;SDS011;7757;52.626;4.746;2022-10-03T15:36:30;10.30;;;1.80;;
15312;SDS011;7757;52.626;4.746;2022-10-03T15:39:04;7.85;;;1.52;;
15312;SDS011;7757;52.626;4.746;2022-10-03T15:41:46;11.77;;;2.08;;
15312;SDS011;7757;52.626;4.746;2022-10-03T15:44:19;8.50;;;1.70;;
15312;SDS011;7757;52.626;4.746;2022-10-03T15:49:23;9.20;;;2.00;;
15312;SDS011;7757;52.626;4.746;2022-10-03T15:51:54;11.45;;;2.25;;
15312;SDS011;7757;52.626;4.746;2022-10-03T15:54:25;8.77;;;1.85;;
15312;SDS011;7757;52.626;4.746;2022-10-03T15:56:56;12.48;;;2.00;;
15312;SDS011;7757;52.626;4.746;2022-10-03T15:59:27;8.82;;;1.95;;
15312;SDS011;7757;52.626;4.746;2022-10-03T16:01:57;9.50;;;2.00;;
15312;SDS011;7757;52.626;4.746;2022-10-03T16:04:31;8.18;;;1.80;;
15312;SDS011;7757;52.626;4.746;2022-10-03T16:07:02;14.77;;;2.92;;
15312;SDS011;7757;52.626;4.746;2022-10-03T16:09:37;11.73;;;2.17;;
15312;SDS011;7757;52.626;4.746;2022-10-03T16:12:27;10.63;;;2.10;;
15312;SDS011;7757;52.626;4.746;2022-10-03T16:15:17;13.82;;;2.25;;
15312;SDS011;7757;52.626;4.746;2022-10-03T16:17:47;9.98;;;1.90;;
15312;SDS011;7757;52.626;4.746;2022-10-03T16:20:17;10.70;;;2.22;;
15312;SDS011;7757;52.626;4.746;2022-10-03T16:22:49;12.27;;;2.20;;
15312;SDS011;7757;52.626;4.746;2022-10-03T16:25:19;9.95;;;2.38;;
15312;SDS011;7757;52.626;4.746;2022-10-03T16:27:51;9.70;;;1.90;;
15312;SDS011;7757;52.626;4.746;2022-10-03T16:30:21;9.80;;;2.17;;
15312;SDS011;7757;52.626;4.746;2022-10-03T16:32:54;10.77;;;2.08;;
15312;SDS011;7757;52.626;4.746;2022-10-03T16:35:32;8.88;;;2.38;;
15312;SDS011;7757;52.626;4.746;2022-10-03T16:38:02;9.38;;;2.17;;
15312;SDS011;7757;52.626;4.746;2022-10-03T16:40:34;8.77;;;1.95;;
15312;SDS011;7757;52.626;4.746;2022-10-03T16:43:03;11.55;;;2.20;;
15312;SDS011;7757;52.626;4.746;2022-10-03T16:45:34;10.75;;;2.05;;
15312;SDS011;7757;52.626;4.746;2022-10-03T16:48:09;7.68;;;1.85;;
15312;SDS011;7757;52.626;4.746;2022-10-03T16:50:57;10.00;;;2.00;;
15312;SDS011;7757;52.626;4.746;2022-10-03T16:53:25;10.07;;;2.10;;
15312;SDS011;7757;52.626;4.746;2022-10-03T16:55:56;9.35;;;2.05;;
15312;SDS011;7757;52.626;4.746;2022-10-03T16:58:29;11.65;;;2.38;;
15312;SDS011;7757;52.626;4.746;2022-10-03T17:00:59;15.23;;;2.13;;
15312;SDS011;7757;52.626;4.746;2022-10-03T17:03:28;12.43;;;2.20;;
15312;SDS011;7757;52.626;4.746;2022-10-03T17:06:00;11.45;;;2.20;;
15312;SDS011;7757;52.626;4.746;2022-10-03T17:08:31;10.73;;;2.17;;
15312;SDS011;7757;52.626;4.746;2022-10-03T17:11:11;10.40;;;2.63;;
15312;SDS011;7757;52.626;4.746;2022-10-03T17:13:44;9.70;;;2.22;;
15312;SDS011;7757;52.626;4.746;2022-10-03T17:16:15;11.88;;;2.20;;
15312;SDS011;7757;52.626;4.746;2022-10-03T17:18:56;7.80;;;2.22;;
15312;SDS011;7757;52.626;4.746;2022-10-03T17:21:33;10.48;;;2.40;;
15312;SDS011;7757;52.626;4.746;2022-10-03T17:24:06;10.57;;;2.50;;
15312;SDS011;7757;52.626;4.746;2022-10-03T17:26:39;10.82;;;2.60;;
15312;SDS011;7757;52.626;4.746;2022-10-03T17:29:09;10.55;;;2.78;;
15312;SDS011;7757;52.626;4.746;2022-10-03T17:31:43;10.02;;;2.63;;
15312;SDS011;7757;52.626;4.746;2022-10-03T17:34:14;13.95;;;3.03;;
15312;SDS011;7757;52.626;4.746;2022-10-03T17:36:55;10.65;;;2.60;;
15312;SDS011;7757;52.626;4.746;2022-10-03T17:39:34;10.45;;;2.55;;
15312;SDS011;7757;52.626;4.746;2022-10-03T17:42:07;10.25;;;2.50;;
15312;SDS011;7757;52.626;4.746;2022-10-03T17:44:45;9.75;;;2.70;;
15312;SDS011;7757;52.626;4.746;2022-10-03T17:47:25;9.52;;;2.88;;
15312;SDS011;7757;52.626;4.746;2022-10-03T17:49:59;10.45;;;2.92;;
15312;SDS011;7757;52.626;4.746;2022-10-03T17:52:31;11.70;;;3.08;;
15312;SDS011;7757;52.626;4.746;2022-10-03T17:55:04;12.88;;;3.10;;
15312;SDS011;7757;52.626;4.746;2022-10-03T17:57:35;11.75;;;3.03;;
15312;SDS011;7757;52.626;4.746;2022-10-03T18:00:06;11.55;;;3.20;;
15312;SDS011;7757;52.626;4.746;2022-10-03T18:02:44;10.40;;;2.95;;
15312;SDS011;7757;52.626;4.746;2022-10-03T18:05:18;12.70;;;3.20;;
15312;SDS011;7757;52.626;4.746;2022-10-03T18:07:45;12.05;;;3.30;;
15312;SDS011;7757;52.626;4.746;2022-10-03T18:10:17;13.00;;;3.42;;
15312;SDS011;7757;52.626;4.746;2022-10-03T18:12:47;11.48;;;3.10;;
15312;SDS011;7757;52.626;4.746;2022-10-03T18:18:16;12.18;;;3.00;;
15312;SDS011;7757;52.626;4.746;2022-10-03T18:21:01;12.57;;;3.30;;
15312;SDS011;7757;52.626;4.746;2022-10-03T18:23:32;10.48;;;2.95;;
15312;SDS011;7757;52.626;4.746;2022-10-03T18:26:09;11.50;;;3.00;;
15312;SDS011;7757;52.626;4.746;2022-10-03T18:28:44;13.40;;;2.97;;
15312;SDS011;7757;52.626;4.746;2022-10-03T18:31:17;10.55;;;2.63;;
15312;SDS011;7757;52.626;4.746;2022-10-03T18:33:45;12.88;;;3.15;;
15312;SDS011;7757;52.626;4.746;2022-10-03T18:36:19;14.25;;;3.10;;
15312;SDS011;7757;52.626;4.746;2022-10-03T18:38:48;11.95;;;2.70;;
15312;SDS011;7757;52.626;4.746;2022-10-03T18:41:18;8.57;;;2.38;;
15312;SDS011;7757;52.626;4.746;2022-10-03T18:43:50;10.85;;;2.70;;
15312;SDS011;7757;52.626;4.746;2022-10-03T18:46:23;8.77;;;2.45;;
15312;SDS011;7757;52.626;4.746;2022-10-03T18:48:55;12.07;;;2.95;;
15312;SDS011;7757;52.626;4.746;2022-10-03T18:51:28;10.88;;;2.60;;
15312;SDS011;7757;52.626;4.746;2022-10-03T18:53:58;10.55;;;2.45;;
15312;SDS011;7757;52.626;4.746;2022-10-03T18:56:29;10.40;;;2.50;;
15312;SDS011;7757;52.626;4.746;2022-10-03T18:59:09;12.13;;;2.90;;
15312;SDS011;7757;52.626;4.746;2022-10-03T19:01:46;9.98;;;2.40;;
15312;SDS011;7757;52.626;4.746;2022-10-03T19:04:18;10.40;;;2.63;;
15312;SDS011;7757;52.626;4.746;2022-10-03T19:06:54;11.55;;;2.63;;